Time;durP1;ratioP1;P1;durP2;ratioP2;P2;SDS_P1;SDS_P2;PMS_P1;PMS_P2;Temp;Humidity;BMP_temperature;BMP_pressure;BME280_temperature;BME280_humidity;BME280_pressure;Samples;Min_cycle;Max_cycle;Signal;HPM_P1;HPM_P2
2022/04/16 00:01:42;;;;;;;6.65;2.30;;;18.30;97.50;;;;;;5018699;28;20057;-73
2022/04/16 00:04:09;;;;;;;7.13;1.98;;;18.30;97.40;;;;;;5018147;28;20056;-72
2022/04/16 00:06:36;;;;;;;8.93;2.78;;;18.30;97.20;;;;;;5034919;28;20517;-73
2022/04/16 00:09:04;;;;;;;7.82;2.70;;;18.30;97.40;;;;;;4997454;28;20030;-72
2022/04/16 00:11:30;;;;;;;7.50;2.70;;;18.20;97.40;;;;;;5006623;28;20022;-72
2022/04/16 00:13:55;;;;;;;13.02;2.70;;;18.20;97.50;;;;;;5035919;28;21001;-73
2022/04/16 00:16:21;;;;;;;8.18;2.50;;;18.10;97.60;;;;;;5030618;28;20049;-73
2022/04/16 00:18:48;;;;;;;5.97;2.45;;;18.00;97.90;;;;;;5023734;28;20079;-72
2022/04/16 00:21:14;;;;;;;5.95;2.60;;;17.90;98.00;;;;;;5020223;28;20077;-72
2022/04/16 00:23:43;;;;;;;6.55;2.45;;;17.90;98.30;;;;;;5020233;28;20073;-71
2022/04/16 00:26:13;;;;;;;8.07;2.78;;;17.90;98.50;;;;;;4983469;28;20038;-72
2022/04/16 00:28:39;;;;;;;9.10;2.40;;;17.90;98.60;;;;;;5018969;28;20050;-72
2022/04/16 00:31:05;;;;;;;8.07;2.53;;;17.90;98.80;;;;;;5014039;28;20046;-72
2022/04/16 00:33:33;;;;;;;8.15;2.95;;;17.90;98.80;;;;;;5015326;28;20038;-72
2022/04/16 00:36:01;;;;;;;7.10;3.13;;;17.90;98.70;;;;;;4998145;28;20034;-72
2022/04/16 00:38:27;;;;;;;6.85;2.53;;;17.90;98.80;;;;;;5013426;28;20061;-73
2022/04/16 00:40:55;;;;;;;6.80;2.85;;;17.80;99.00;;;;;;5017688;28;20045;-73
2022/04/16 00:43:25;;;;;;;8.25;2.60;;;17.90;99.20;;;;;;5029487;28;20573;-72
2022/04/16 00:45:54;;;;;;;6.55;2.75;;;17.80;99.10;;;;;;5016534;28;20045;-72
2022/04/16 00:48:21;;;;;;;13.32;3.30;;;17.80;99.50;;;;;;5030372;28;20099;-72
2022/04/16 00:50:53;;;;;;;7.38;2.70;;;17.80;99.60;;;;;;5003570;28;20041;-72
2022/04/16 00:53:21;;;;;;;8.70;3.10;;;17.80;99.60;;;;;;5018429;28;20073;-72
2022/04/16 00:55:48;;;;;;;7.68;3.53;;;17.70;99.70;;;;;;5022874;28;20296;-71
2022/04/16 00:58:14;;;;;;;6.13;2.75;;;17.60;99.80;;;;;;5019444;28;20393;-72
2022/04/16 01:00:40;;;;;;;7.15;3.03;;;17.50;99.90;;;;;;5023198;28;20049;-72
2022/04/16 01:03:07;;;;;;;7.18;3.40;;;17.50;99.90;;;;;;5000087;28;20365;-72
2022/04/16 01:05:36;;;;;;;9.38;3.05;;;17.50;99.90;;;;;;5005658;28;20045;-72
2022/04/16 01:08:04;;;;;;;10.18;2.95;;;17.40;99.90;;;;;;5020440;28;20038;-72
2022/04/16 01:10:32;;;;;;;6.75;2.70;;;17.40;99.90;;;;;;5034082;28;20496;-72
2022/04/16 01:13:01;;;;;;;9.23;3.17;;;17.30;99.90;;;;;;5005130;28;20120;-72
2022/04/16 01:15:29;;;;;;;6.32;2.92;;;17.30;99.90;;;;;;5020388;28;20044;-72
2022/04/16 01:17:56;;;;;;;5.53;2.72;;;17.40;99.90;;;;;;5024695;28;20045;-72
2022/04/16 01:20:23;;;;;;;6.30;2.60;;;17.30;99.90;;;;;;5022049;28;20112;-72
2022/04/16 01:22:51;;;;;;;12.40;3.35;;;17.30;99.90;;;;;;5008561;28;20477;-72
2022/04/16 01:25:18;;;;;;;8.80;3.00;;;17.20;99.90;;;;;;5017395;28;20033;-72
2022/04/16 01:27:46;;;;;;;6.82;2.70;;;17.20;99.90;;;;;;5024214;28;20535;-71
2022/04/16 01:30:18;;;;;;;7.05;2.92;;;17.40;99.90;;;;;;5019881;28;20049;-72
2022/04/16 01:32:46;;;;;;;7.72;3.17;;;17.30;99.90;;;;;;5022212;28;20038;-72
2022/04/16 01:35:13;;;;;;;10.23;2.95;;;17.30;99.90;;;;;;5032016;28;20041;-71
2022/04/16 01:37:41;;;;;;;7.97;3.03;;;17.30;99.90;;;;;;5021981;28;20037;-72
2022/04/16 01:40:09;;;;;;;7.15;3.00;;;17.30;99.90;;;;;;5021890;28;20123;-72
2022/04/16 01:42:36;;;;;;;12.98;3.08;;;17.30;99.90;;;;;;5021823;28;20040;-72
2022/04/16 01:45:03;;;;;;;8.02;3.28;;;17.30;99.90;;;;;;5036683;28;20046;-71
2022/04/16 01:47:29;;;;;;;8.30;3.10;;;17.40;99.90;;;;;;4999899;28;20425;-73
2022/04/16 01:49:56;;;;;;;5.88;2.80;;;17.50;99.90;;;;;;5038621;28;20056;-74
2022/04/16 01:52:23;;;;;;;6.00;2.97;;;17.50;99.90;;;;;;5024324;28;20026;-73
2022/04/16 01:54:53;;;;;;;10.10;2.65;;;17.60;99.90;;;;;;5043950;28;20396;-73
2022/04/16 01:57:19;;;;;;;8.35;2.97;;;17.70;99.90;;;;;;4998580;28;20061;-74
2022/04/16 01:59:49;;;;;;;9.63;3.15;;;17.80;99.90;;;;;;5036810;28;20068;-74
2022/04/16 02:02:17;;;;;;;8.85;3.15;;;17.70;99.90;;;;;;5034350;28;20042;-74
2022/04/16 02:04:43;;;;;;;5.00;3.00;;;17.70;99.90;;;;;;5000387;28;20489;-75
2022/04/16 02:07:10;;;;;;;7.88;3.08;;;17.80;99.90;;;;;;5002872;28;20033;-73
2022/04/16 02:09:35;;;;;;;10.05;3.58;;;17.90;99.90;;;;;;5038504;28;20041;-73
2022/04/16 02:12:02;;;;;;;6.30;2.85;;;18.00;99.90;;;;;;5038636;28;20508;-75
2022/04/16 02:14:29;;;;;;;7.05;3.03;;;18.10;99.90;;;;;;5007644;28;20068;-74
2022/04/16 02:16:55;;;;;;;7.40;3.33;;;18.10;99.90;;;;;;5022927;28;20117;-74
2022/04/16 02:19:21;;;;;;;8.18;3.33;;;18.20;99.90;;;;;;5022896;28;20492;-74
2022/04/16 02:21:48;;;;;;;9.23;3.00;;;18.30;99.90;;;;;;5018559;28;20513;-74
2022/04/16 02:24:17;;;;;;;4.82;2.75;;;18.30;99.90;;;;;;5037469;28;20069;-73
2022/04/16 02:26:46;;;;;;;7.80;3.28;;;18.10;99.90;;;;;;5004894;28;20036;-74
2022/04/16 02:29:14;;;;;;;5.05;2.58;;;17.90;99.90;;;;;;5006957;28;20038;-73
2022/04/16 02:31:41;;;;;;;7.25;2.97;;;17.90;99.90;;;;;;4987370;28;20092;-74
2022/04/16 02:34:11;;;;;;;6.00;2.97;;;17.90;99.90;;;;;;5038184;28;20045;-74
2022/04/16 02:36:40;;;;;;;10.43;2.92;;;17.90;99.90;;;;;;5038917;28;20501;-74
2022/04/16 02:39:08;;;;;;;8.77;3.40;;;17.90;99.90;;;;;;5019788;28;20034;-73
2022/04/16 02:41:35;;;;;;;9.02;3.17;;;17.90;99.90;;;;;;5035271;28;20050;-74
2022/04/16 02:44:01;;;;;;;8.63;3.17;;;17.80;99.90;;;;;;5024721;28;20117;-74
2022/04/16 02:49:13;;;;;;;10.85;2.95;;;17.90;99.90;;;;;;5022887;28;20059;-75
2022/04/16 02:51:39;;;;;;;11.52;3.40;;;17.80;99.90;;;;;;5020112;28;20040;-74
2022/04/16 02:54:05;;;;;;;5.75;2.75;;;17.70;99.90;;;;;;5002930;28;20044;-74
2022/04/16 02:56:32;;;;;;;6.35;3.00;;;17.70;99.90;;;;;;5016286;28;20445;-74
2022/04/16 02:58:58;;;;;;;7.00;2.83;;;17.60;99.90;;;;;;5038724;28;20038;-74
2022/04/16 03:01:25;;;;;;;5.28;2.60;;;17.60;99.90;;;;;;5021282;28;20060;-74
2022/04/16 03:03:51;;;;;;;6.95;2.97;;;17.60;99.90;;;;;;5006265;28;20042;-74
2022/04/16 03:06:17;;;;;;;9.77;3.70;;;17.60;99.90;;;;;;5019400;28;20136;-73
2022/04/16 03:08:43;;;;;;;10.15;3.70;;;17.60;99.90;;;;;;5002108;28;20087;-73
2022/04/16 03:11:10;;;;;;;7.40;3.05;;;17.60;99.90;;;;;;5032467;28;20085;-75
2022/04/16 03:13:36;;;;;;;8.27;3.33;;;17.50;99.90;;;;;;5018078;28;20156;-74
2022/04/16 03:18:47;;;;;;;5.47;2.80;;;17.40;99.90;;;;;;5018563;28;20075;-74
2022/04/16 03:21:13;;;;;;;7.13;2.80;;;17.40;99.90;;;;;;5019273;28;20034;-73
2022/04/16 03:23:39;;;;;;;6.32;3.00;;;17.30;99.90;;;;;;5017060;28;20495;-74
2022/04/16 03:26:06;;;;;;;7.35;3.00;;;17.30;99.90;;;;;;5020656;28;20083;-74
2022/04/16 03:28:32;;;;;;;8.75;2.95;;;17.30;99.90;;;;;;5033486;28;20037;-74
2022/04/16 03:30:58;;;;;;;8.52;3.22;;;17.30;99.90;;;;;;5021708;28;20428;-74
2022/04/16 03:33:24;;;;;;;9.75;3.03;;;17.30;99.90;;;;;;5000356;28;20935;-74
2022/04/16 03:35:51;;;;;;;5.93;3.03;;;17.20;99.90;;;;;;5006918;28;20069;-73
2022/04/16 03:38:19;;;;;;;5.80;3.17;;;17.10;99.90;;;;;;5018318;28;20038;-74
2022/04/16 03:40:48;;;;;;;10.00;3.75;;;17.20;99.90;;;;;;5020465;28;20046;-75
2022/04/16 03:43:18;;;;;;;7.20;3.28;;;17.20;99.90;;;;;;5018430;28;20042;-75
2022/04/16 03:45:44;;;;;;;6.93;3.05;;;17.10;99.90;;;;;;4999447;28;20096;-74
2022/04/16 03:48:10;;;;;;;7.47;2.92;;;17.10;99.90;;;;;;5004729;28;20512;-73
2022/04/16 03:50:36;;;;;;;8.25;3.28;;;17.00;99.90;;;;;;5021007;28;20117;-74
2022/04/16 03:53:03;;;;;;;8.70;3.40;;;17.00;99.90;;;;;;5034657;28;20069;-77
2022/04/16 04:01:03;;;;;;;9.88;3.30;;;16.80;99.90;;;;;;5016329;28;20049;-73
2022/04/16 04:03:30;;;;;;;8.93;3.20;;;17.00;99.90;;;;;;5032123;28;20119;-74
2022/04/16 04:05:58;;;;;;;5.22;3.30;;;17.00;99.90;;;;;;5018135;28;20508;-74
2022/04/16 04:08:26;;;;;;;6.22;3.10;;;17.00;99.90;;;;;;5016659;28;20065;-74
2022/04/16 04:10:52;;;;;;;8.18;2.90;;;17.10;99.90;;;;;;5018106;28;20837;-74
2022/04/16 04:13:18;;;;;;;6.25;3.00;;;17.10;99.90;;;;;;4998436;28;20049;-73
2022/04/16 04:15:44;;;;;;;9.43;3.03;;;17.00;99.90;;;;;;5016355;28;20038;-74
2022/04/16 04:18:11;;;;;;;5.78;3.17;;;17.20;99.90;;;;;;4995787;28;20065;-75
2022/04/16 04:20:37;;;;;;;8.70;3.20;;;17.20;99.90;;;;;;5035939;28;20098;-74
2022/04/16 04:23:04;;;;;;;8.05;3.63;;;17.20;99.90;;;;;;5029657;28;20157;-74
2022/04/16 04:25:30;;;;;;;6.40;3.10;;;17.10;99.90;;;;;;5019130;28;20853;-74
2022/04/16 04:27:57;;;;;;;8.27;3.28;;;17.10;99.90;;;;;;5036593;28;20046;-74
2022/04/16 04:30:24;;;;;;;7.50;3.25;;;17.10;99.90;;;;;;5015100;28;20046;-74
2022/04/16 04:32:50;;;;;;;7.80;2.72;;;17.20;99.90;;;;;;5014427;28;20539;-74
2022/04/16 04:35:16;;;;;;;6.15;2.88;;;17.20;99.90;;;;;;4997068;28;20042;-73
2022/04/16 04:37:42;;;;;;;6.80;3.20;;;17.30;99.90;;;;;;5017288;28;20048;-74
2022/04/16 04:40:08;;;;;;;8.32;2.70;;;17.40;99.90;;;;;;5034763;28;20045;-74
2022/04/16 04:42:36;;;;;;;7.35;3.00;;;17.40;99.90;;;;;;5015242;28;20758;-75
2022/04/16 04:45:10;;;;;;;10.18;3.05;;;17.40;99.90;;;;;;4970161;28;1749138;-74
2022/04/16 04:47:37;;;;;;;7.50;2.55;;;17.50;99.90;;;;;;5016891;28;20049;-74
2022/04/16 04:50:04;;;;;;;7.18;2.72;;;17.40;99.90;;;;;;5033927;28;20386;-73
2022/04/16 04:52:30;;;;;;;7.00;3.08;;;17.50;99.90;;;;;;5000721;28;20038;-74
2022/04/16 04:55:00;;;;;;;6.78;2.90;;;17.50;99.90;;;;;;5018938;28;20045;-74
2022/04/16 04:57:27;;;;;;;9.80;3.08;;;17.40;99.90;;;;;;5036000;28;20610;-74
2022/04/16 04:59:54;;;;;;;7.47;3.22;;;17.40;99.90;;;;;;5024498;28;20519;-74
2022/04/16 05:02:20;;;;;;;8.05;2.92;;;17.40;99.90;;;;;;5015670;28;20030;-74
2022/04/16 05:04:47;;;;;;;6.38;3.00;;;17.40;99.90;;;;;;5014256;28;20034;-73
2022/04/16 05:07:12;;;;;;;7.25;3.13;;;17.30;99.90;;;;;;5011773;28;20060;-74
2022/04/16 05:09:39;;;;;;;6.88;3.28;;;17.20;99.90;;;;;;4998844;28;20070;-74
2022/04/16 05:12:05;;;;;;;6.45;3.28;;;17.20;99.90;;;;;;5018858;28;20035;-74
2022/04/16 05:14:32;;;;;;;9.70;3.33;;;17.30;99.90;;;;;;5022804;28;20057;-74
2022/04/16 05:16:59;;;;;;;6.40;2.50;;;17.20;99.90;;;;;;5004677;28;20379;-75
2022/04/16 05:19:25;;;;;;;9.77;3.50;;;17.30;99.90;;;;;;5002070;28;20393;-74
2022/04/16 05:21:51;;;;;;;8.10;3.08;;;17.30;99.90;;;;;;5032168;28;20045;-74
2022/04/16 05:24:17;;;;;;;9.98;3.50;;;17.30;99.90;;;;;;5020980;28;20442;-74
2022/04/16 05:26:43;;;;;;;9.30;3.55;;;17.20;99.90;;;;;;5003393;28;20125;-73
2022/04/16 05:29:09;;;;;;;11.48;3.50;;;17.10;99.90;;;;;;5037316;28;20199;-74
2022/04/16 05:31:36;;;;;;;10.38;3.60;;;17.10;99.90;;;;;;4998924;28;20440;-74
2022/04/16 05:34:21;;;;;;;7.72;2.45;;;17.00;99.90;;;;;;5032574;28;20049;-74
2022/04/16 05:36:49;;;;;;;9.18;3.50;;;17.10;99.90;;;;;;5031731;28;20157;-75
2022/04/16 05:39:16;;;;;;;8.43;3.10;;;17.30;99.90;;;;;;5018388;28;20045;-75
2022/04/16 05:41:44;;;;;;;7.70;3.10;;;17.30;99.90;;;;;;5039510;28;20042;-74
2022/04/16 05:44:10;;;;;;;17.40;3.67;;;17.30;99.90;;;;;;5013882;28;20037;-75
2022/04/16 05:46:36;;;;;;;8.10;3.03;;;17.30;99.90;;;;;;5039630;28;20041;-73
2022/04/16 05:49:02;;;;;;;9.52;3.28;;;17.30;99.90;;;;;;5021847;28;20042;-75
2022/04/16 05:51:28;;;;;;;6.80;2.95;;;17.40;99.90;;;;;;5029549;28;20045;-74
2022/04/16 05:53:54;;;;;;;9.27;3.03;;;17.50;99.90;;;;;;5008207;28;20033;-75
2022/04/16 05:56:22;;;;;;;12.10;3.58;;;17.50;99.90;;;;;;5020347;28;20038;-74
2022/04/16 05:58:48;;;;;;;8.52;3.58;;;17.60;99.90;;;;;;5020242;28;20046;-73
2022/04/16 06:01:14;;;;;;;8.68;3.22;;;17.60;99.90;;;;;;5013901;28;20094;-74
2022/04/16 06:03:40;;;;;;;8.52;3.50;;;17.70;99.90;;;;;;5037798;28;20042;-74
2022/04/16 06:06:09;;;;;;;7.32;3.63;;;17.80;99.90;;;;;;5038100;28;20057;-74
2022/04/16 06:08:37;;;;;;;10.65;4.28;;;18.00;99.90;;;;;;5021706;28;20045;-74
2022/04/16 06:11:04;;;;;;;10.90;3.90;;;18.00;99.90;;;;;;5019961;28;20042;-74
2022/04/16 06:13:31;;;;;;;8.07;3.38;;;18.00;99.90;;;;;;5040034;28;20102;-74
2022/04/16 06:15:58;;;;;;;5.88;2.92;;;18.00;99.90;;;;;;5033259;28;20446;-73
2022/04/16 06:18:24;;;;;;;10.05;4.78;;;18.00;99.90;;;;;;5039122;28;20095;-73
2022/04/16 06:20:50;;;;;;;8.65;4.53;;;18.10;99.90;;;;;;5021699;28;20481;-75
2022/04/16 06:23:20;;;;;;;10.85;4.75;;;18.30;99.90;;;;;;5021483;28;20043;-73
2022/04/16 06:25:46;;;;;;;10.38;4.22;;;18.40;99.90;;;;;;5002803;28;20133;-74
2022/04/16 06:28:13;;;;;;;10.70;6.65;;;18.50;99.90;;;;;;5034186;28;20057;-74
2022/04/16 06:30:39;;;;;;;6.18;3.88;;;18.60;99.90;;;;;;5022411;28;20042;-75
2022/04/16 06:33:05;;;;;;;9.52;3.08;;;18.70;99.90;;;;;;5034908;28;20044;-73
2022/04/16 06:35:32;;;;;;;5.95;3.00;;;18.70;99.90;;;;;;5020728;28;20092;-75
2022/04/16 06:37:58;;;;;;;7.85;3.35;;;18.90;99.90;;;;;;5015101;28;20034;-73
2022/04/16 06:40:24;;;;;;;8.25;3.28;;;19.00;99.90;;;;;;5029514;28;20046;-74
2022/04/16 06:42:54;;;;;;;8.90;3.22;;;19.10;99.90;;;;;;5036270;28;20432;-73
2022/04/16 06:45:21;;;;;;;9.38;3.40;;;19.20;99.90;;;;;;5031523;28;20042;-74
2022/04/16 06:47:47;;;;;;;9.75;3.85;;;19.30;99.90;;;;;;5039081;28;20037;-74
2022/04/16 06:50:13;;;;;;;11.35;3.65;;;19.50;99.90;;;;;;5005035;28;20054;-74
2022/04/16 06:52:39;;;;;;;11.60;3.45;;;19.60;99.90;;;;;;5001551;28;20389;-74
2022/04/16 06:55:06;;;;;;;6.50;3.13;;;19.80;99.90;;;;;;5000187;28;20174;-73
2022/04/16 06:57:32;;;;;;;9.90;3.17;;;19.90;99.90;;;;;;5041178;28;20084;-73
2022/04/16 06:59:58;;;;;;;9.60;3.80;;;20.00;99.90;;;;;;5021856;28;20077;-73
2022/04/16 07:02:24;;;;;;;6.57;3.85;;;20.00;99.90;;;;;;5015529;28;20041;-74
2022/04/16 07:04:50;;;;;;;9.15;4.03;;;20.10;99.90;;;;;;5035596;28;20065;-74
2022/04/16 07:07:16;;;;;;;9.02;3.65;;;20.20;99.90;;;;;;5020014;28;20052;-73
2022/04/16 07:09:42;;;;;;;6.47;3.85;;;20.30;99.90;;;;;;5003762;28;20045;-74
2022/04/16 07:12:10;;;;;;;12.90;3.70;;;20.30;99.90;;;;;;5017860;28;20033;-74
2022/04/16 07:14:37;;;;;;;7.55;3.22;;;20.40;99.90;;;;;;5038951;28;20034;-74
2022/04/16 07:17:04;;;;;;;8.90;3.72;;;20.50;99.90;;;;;;5031986;28;20404;-73
2022/04/16 07:19:31;;;;;;;9.88;4.07;;;20.60;99.90;;;;;;5031428;28;20064;-75
2022/04/16 07:21:57;;;;;;;16.88;5.20;;;20.60;99.90;;;;;;5007008;28;20409;-74
2022/04/16 07:24:25;;;;;;;11.18;4.75;;;20.70;99.90;;;;;;5035042;28;20053;-74
2022/04/16 07:26:54;;;;;;;10.35;5.03;;;20.70;99.90;;;;;;5035266;28;20034;-74
2022/04/16 07:29:21;;;;;;;8.63;4.90;;;20.80;99.90;;;;;;5019274;28;20044;-74
2022/04/16 07:31:47;;;;;;;15.48;5.35;;;20.80;99.90;;;;;;5037515;28;20050;-74
2022/04/16 07:34:14;;;;;;;15.65;5.10;;;20.80;99.90;;;;;;5018121;28;20038;-73
2022/04/16 07:36:41;;;;;;;7.53;3.80;;;20.80;99.90;;;;;;5036158;28;20030;-73
2022/04/16 07:39:07;;;;;;;7.60;4.20;;;20.80;99.90;;;;;;5033593;28;20030;-74
2022/04/16 07:41:34;;;;;;;8.27;4.07;;;20.90;99.90;;;;;;5020170;28;20092;-74
2022/04/16 07:44:03;;;;;;;8.68;4.25;;;21.00;99.90;;;;;;5018371;28;20104;-74
2022/04/16 07:46:31;;;;;;;6.93;4.32;;;21.20;99.90;;;;;;5017138;28;20476;-74
2022/04/16 07:48:57;;;;;;;17.30;5.50;;;21.30;99.90;;;;;;5019973;28;20049;-74
2022/04/16 07:51:27;;;;;;;11.55;5.38;;;21.40;99.90;;;;;;5003599;28;20057;-74
2022/04/16 07:53:54;;;;;;;12.10;6.95;;;21.50;99.80;;;;;;5038821;28;20038;-74
2022/04/16 07:56:20;;;;;;;14.02;5.70;;;21.50;99.80;;;;;;5034239;28;20048;-73
2022/04/16 07:58:47;;;;;;;13.48;5.82;;;21.60;99.00;;;;;;5026053;28;20033;-74
2022/04/16 08:01:13;;;;;;;10.00;5.00;;;21.70;98.80;;;;;;5021580;28;20041;-74
2022/04/16 08:03:39;;;;;;;10.05;5.22;;;21.80;98.60;;;;;;5021356;28;20041;-76
2022/04/16 08:06:06;;;;;;;13.40;4.80;;;21.80;98.20;;;;;;5006696;28;20047;-75
2022/04/16 08:08:32;;;;;;;9.70;5.35;;;21.90;98.20;;;;;;4997821;28;20046;-74
2022/04/16 08:10:58;;;;;;;10.85;4.95;;;21.90;97.90;;;;;;5014349;28;20042;-74
2022/04/16 08:13:24;;;;;;;7.22;4.22;;;21.90;97.80;;;;;;5032711;28;20049;-74
2022/04/16 08:15:50;;;;;;;10.10;6.30;;;21.90;97.40;;;;;;5017493;28;20038;-74
2022/04/16 08:18:17;;;;;;;11.18;3.72;;;22.00;98.00;;;;;;5017708;28;20490;-74
2022/04/16 08:20:44;;;;;;;7.63;3.20;;;22.00;96.30;;;;;;5022084;28;20130;-74
2022/04/16 08:23:11;;;;;;;7.78;2.40;;;22.10;95.40;;;;;;5039202;28;20068;-73
2022/04/16 08:28:05;;;;;;;8.48;2.15;;;22.50;94.50;;;;;;5018957;28;20042;-74
2022/04/16 08:30:32;;;;;;;7.78;3.63;;;22.60;94.00;;;;;;5032847;28;20037;-74
2022/04/16 08:32:59;;;;;;;8.63;2.85;;;23.00;94.90;;;;;;5017754;28;20038;-74
2022/04/16 08:35:26;;;;;;;10.23;3.65;;;24.50;92.90;;;;;;4999143;28;20129;-74
2022/04/16 08:37:52;;;;;;;6.65;2.50;;;25.80;92.40;;;;;;5034849;28;20041;-74
2022/04/16 08:40:20;;;;;;;10.90;2.88;;;26.20;91.00;;;;;;5019755;28;20453;-75
2022/04/16 08:42:49;;;;;;;7.60;2.67;;;26.70;90.10;;;;;;4997750;28;20101;-74
2022/04/16 08:45:14;;;;;;;8.68;2.63;;;27.40;89.30;;;;;;5020805;28;20041;-74
2022/04/16 08:47:41;;;;;;;15.30;3.22;;;27.40;87.20;;;;;;5003774;28;20128;-74
2022/04/16 08:50:10;;;;;;;6.82;2.40;;;27.80;86.50;;;;;;5016733;28;20037;-73
2022/04/16 08:52:37;;;;;;;12.00;2.78;;;27.90;86.00;;;;;;5018484;28;20038;-75
2022/04/16 08:55:06;;;;;;;8.88;2.20;;;28.20;84.70;;;;;;5039362;28;20049;-74
2022/04/16 08:57:32;;;;;;;7.38;2.47;;;28.80;84.60;;;;;;5006371;28;20167;-74
2022/04/16 08:59:59;;;;;;;9.07;2.58;;;28.80;82.80;;;;;;5021358;28;20527;-75
2022/04/16 09:02:26;;;;;;;8.35;2.08;;;28.90;83.10;;;;;;5016310;28;20045;-75
2022/04/16 09:05:09;;;;;;;10.63;2.20;;;29.10;82.80;;;;;;5014528;28;20512;-75
2022/04/16 09:07:48;;;;;;;8.98;2.40;;;29.40;82.10;;;;;;5035518;28;20037;-74
2022/04/16 09:10:14;;;;;;;11.82;2.20;;;29.40;81.40;;;;;;5004081;28;20520;-74
2022/04/16 09:12:40;;;;;;;8.60;1.90;;;29.90;80.70;;;;;;5032915;28;20504;-74
2022/04/16 09:15:08;;;;;;;7.57;1.90;;;29.20;80.50;;;;;;5001652;28;20046;-73
2022/04/16 09:17:34;;;;;;;6.97;2.20;;;29.50;80.70;;;;;;5020158;28;20042;-77
2022/04/16 09:20:01;;;;;;;12.27;2.13;;;28.80;81.00;;;;;;5039525;28;20133;-74
2022/04/16 09:22:32;;;;;;;6.53;2.10;;;28.60;82.20;;;;;;5003271;28;20455;-75
2022/04/16 09:24:58;;;;;;;10.13;2.33;;;29.80;80.50;;;;;;5026801;28;20061;-75
2022/04/16 09:27:24;;;;;;;9.00;2.20;;;29.80;79.50;;;;;;5034738;28;21090;-74
2022/04/16 09:29:52;;;;;;;9.93;2.08;;;29.70;78.80;;;;;;5022939;28;20037;-73
2022/04/16 09:32:24;;;;;;;6.15;1.65;;;30.00;78.90;;;;;;5022975;28;20038;-74
2022/04/16 09:34:51;;;;;;;9.80;2.25;;;30.20;78.50;;;;;;5020029;28;20066;-75
2022/04/16 09:37:17;;;;;;;7.13;2.08;;;30.00;77.90;;;;;;5038286;28;20037;-74
2022/04/16 09:39:43;;;;;;;6.78;1.88;;;30.20;78.30;;;;;;5024012;28;20053;-74
2022/04/16 09:42:09;;;;;;;6.38;1.83;;;28.70;79.50;;;;;;5006445;28;20026;-74
2022/04/16 09:44:35;;;;;;;8.75;2.15;;;28.10;80.40;;;;;;5039065;28;20053;-74
2022/04/16 09:47:03;;;;;;;9.25;2.30;;;29.20;80.70;;;;;;5037179;28;20049;-75
2022/04/16 09:49:33;;;;;;;8.45;2.03;;;29.50;80.30;;;;;;5039704;28;20034;-74
2022/04/16 09:52:02;;;;;;;8.77;1.90;;;30.20;79.70;;;;;;5019319;28;20090;-75
2022/04/16 09:54:29;;;;;;;11.82;2.25;;;29.60;80.00;;;;;;5036253;28;20037;-75
2022/04/16 09:57:01;;;;;;;6.90;1.98;;;28.60;80.30;;;;;;5022147;28;20191;-73
2022/04/16 09:59:34;;;;;;;7.47;1.98;;;29.20;80.50;;;;;;5037742;28;20352;-74
2022/04/16 10:02:02;;;;;;;7.90;2.22;;;28.90;79.60;;;;;;5022371;28;20050;-74
2022/04/16 10:04:31;;;;;;;7.68;2.00;;;29.50;79.10;;;;;;5004633;28;20087;-74
2022/04/16 10:06:57;;;;;;;6.15;2.45;;;29.90;79.30;;;;;;5036750;28;20037;-74
2022/04/16 10:09:24;;;;;;;10.38;2.00;;;29.40;79.00;;;;;;5034945;28;20045;-74
2022/04/16 10:14:56;;;;;;;9.93;2.30;;;27.70;80.80;;;;;;5006616;28;20043;-74
2022/04/16 10:17:32;;;;;;;7.32;2.20;;;28.00;81.80;;;;;;5033354;28;20041;-75
2022/04/16 10:20:19;;;;;;;6.63;2.25;;;28.10;81.80;;;;;;5021286;28;20041;-74
2022/04/16 10:23:01;;;;;;;6.18;2.20;;;26.60;83.50;;;;;;5010404;28;20030;-74
2022/04/16 10:25:34;;;;;;;9.05;2.45;;;26.40;83.70;;;;;;5033891;28;20497;-74
2022/04/16 10:28:08;;;;;;;10.70;2.55;;;26.40;84.20;;;;;;5019348;28;20068;-74
2022/04/16 10:30:41;;;;;;;11.18;2.15;;;26.40;84.80;;;;;;5018228;28;20057;-74
2022/04/16 10:33:25;;;;;;;6.75;2.10;;;26.10;84.50;;;;;;5035518;28;20026;-73
2022/04/16 10:35:57;;;;;;;9.55;2.45;;;26.50;84.10;;;;;;5022219;28;20083;-74
2022/04/16 10:38:35;;;;;;;8.05;2.60;;;26.10;84.30;;;;;;4999984;28;20037;-74
2022/04/16 10:41:11;;;;;;;11.85;2.80;;;26.90;84.20;;;;;;5005804;28;20041;-73
2022/04/16 10:43:38;;;;;;;9.93;2.70;;;27.20;83.60;;;;;;5002280;28;20046;-75
2022/04/16 10:46:05;;;;;;;15.60;4.28;;;27.20;83.90;;;;;;5031285;28;20059;-74
2022/04/16 10:48:33;;;;;;;11.90;5.22;;;27.10;83.90;;;;;;5020346;28;20048;-73
2022/04/16 10:51:00;;;;;;;9.73;3.33;;;26.80;84.60;;;;;;5021404;28;20037;-74
2022/04/16 10:53:28;;;;;;;13.88;2.80;;;26.10;84.30;;;;;;5020595;28;20084;-75
2022/04/16 10:55:54;;;;;;;6.97;2.80;;;26.50;85.50;;;;;;5036927;28;20629;-75
2022/04/16 10:58:30;;;;;;;8.98;2.80;;;26.10;86.00;;;;;;5029956;28;20036;-74
2022/04/16 11:01:10;;;;;;;8.07;2.28;;;27.00;85.70;;;;;;5024268;28;20447;-74
2022/04/16 11:03:48;;;;;;;8.60;2.95;;;27.40;85.20;;;;;;5021555;28;20065;-74
2022/04/16 11:06:16;;;;;;;6.70;2.42;;;26.90;85.30;;;;;;5022877;28;20034;-74
2022/04/16 11:08:42;;;;;;;8.23;2.35;;;27.00;84.60;;;;;;5020889;28;20367;-73
2022/04/16 11:11:13;;;;;;;5.63;2.22;;;27.20;84.30;;;;;;5020501;28;20037;-74
2022/04/16 11:13:40;;;;;;;10.20;2.40;;;26.80;83.00;;;;;;5024643;28;20037;-74
2022/04/16 11:16:07;;;;;;;5.93;2.50;;;27.70;82.90;;;;;;5036440;28;20052;-74
2022/04/16 11:18:45;;;;;;;8.43;2.20;;;27.60;82.30;;;;;;5004586;28;20132;-74
2022/04/16 11:21:29;;;;;;;6.63;2.30;;;27.40;82.10;;;;;;5033747;28;20133;-74
2022/04/16 11:23:55;;;;;;;7.97;2.03;;;27.50;81.40;;;;;;5019081;28;20034;-75
2022/04/16 11:34:59;;;;;;;7.80;2.05;;;26.80;81.10;;;;;;5005888;28;20413;-75
2022/04/16 11:37:26;;;;;;;9.88;2.92;;;27.40;81.60;;;;;;5010441;28;20045;-74
2022/04/16 11:40:05;;;;;;;9.95;2.40;;;28.00;82.00;;;;;;5016205;28;20042;-75
2022/04/16 11:42:31;;;;;;;9.10;2.30;;;28.30;81.70;;;;;;5025568;28;20030;-74
2022/04/16 11:44:58;;;;;;;7.20;2.67;;;27.90;81.00;;;;;;4996390;28;20497;-74
2022/04/16 11:47:27;;;;;;;7.20;2.00;;;28.10;81.00;;;;;;5000993;28;20026;-74
2022/04/16 11:50:01;;;;;;;8.32;2.40;;;28.50;79.80;;;;;;5012876;28;20027;-74
2022/04/16 11:52:29;;;;;;;12.77;2.53;;;28.30;79.60;;;;;;4987197;28;20378;-75
2022/04/16 11:55:23;;;;;;;4.93;2.28;;;27.80;80.50;;;;;;5000741;28;20053;-74
2022/04/16 11:57:54;;;;;;;7.88;2.28;;;27.80;80.90;;;;;;5010736;28;20053;-75
2022/04/16 12:00:22;;;;;;;8.45;2.10;;;28.70;80.80;;;;;;5002331;28;20042;-75
2022/04/16 12:02:55;;;;;;;7.63;2.35;;;28.20;80.20;;;;;;5001574;28;20065;-74
2022/04/16 12:05:28;;;;;;;10.10;2.50;;;28.30;80.00;;;;;;5036613;28;20064;-74
2022/04/16 12:07:55;;;;;;;12.15;2.53;;;28.30;80.40;;;;;;5024070;28;20065;-74
2022/04/16 12:10:24;;;;;;;11.38;2.42;;;28.40;81.30;;;;;;5017004;28;20085;-74
2022/04/16 12:12:53;;;;;;;7.22;2.22;;;28.40;80.90;;;;;;5019138;28;20110;-74
2022/04/16 12:15:26;;;;;;;12.15;2.20;;;29.00;80.70;;;;;;5030254;28;20045;-75
2022/04/16 12:17:54;;;;;;;9.55;2.65;;;29.10;80.10;;;;;;5020417;28;20138;-75
2022/04/16 12:20:21;;;;;;;10.13;2.55;;;28.90;80.50;;;;;;5021779;28;20038;-74
2022/04/16 12:22:52;;;;;;;12.35;2.33;;;28.50;80.40;;;;;;5034899;28;20501;-74
2022/04/16 12:25:24;;;;;;;8.93;2.05;;;28.80;80.40;;;;;;5018422;28;20048;-75
2022/04/16 12:27:55;;;;;;;8.60;2.35;;;28.30;80.30;;;;;;5002561;28;20477;-74
2022/04/16 12:30:33;;;;;;;7.80;2.03;;;27.60;81.30;;;;;;5017566;28;20034;-74
2022/04/16 12:33:05;;;;;;;8.18;1.90;;;28.50;80.50;;;;;;5036122;28;20266;-74
2022/04/16 12:35:36;;;;;;;10.35;2.10;;;28.50;80.00;;;;;;5020408;28;20481;-76
2022/04/16 12:38:03;;;;;;;;;;;28.80;79.80;;;;;;5021426;28;20049;-74
2022/04/16 12:40:30;;;;;;;6.45;2.25;;;29.10;79.10;;;;;;5031481;28;20446;-73
2022/04/16 12:42:58;;;;;;;7.25;2.20;;;28.30;79.10;;;;;;5036060;28;20503;-74
2022/04/16 12:45:26;;;;;;;5.95;2.03;;;28.40;79.90;;;;;;5036037;28;20046;-74
2022/04/16 12:47:53;;;;;;;9.00;2.40;;;28.00;79.40;;;;;;5036470;28;20124;-75
2022/04/16 12:50:20;;;;;;;8.73;1.80;;;28.40;79.40;;;;;;5021528;28;20033;-74
2022/04/16 12:52:47;;;;;;;11.35;2.03;;;27.70;79.70;;;;;;5023106;28;20042;-74
2022/04/16 12:55:14;;;;;;;7.30;1.83;;;27.50;79.00;;;;;;5005227;28;20652;-74
2022/04/16 12:57:43;;;;;;;5.53;1.88;;;27.10;80.00;;;;;;5020771;28;20481;-74
2022/04/16 13:00:10;;;;;;;8.40;2.28;;;27.20;80.80;;;;;;5021450;28;20078;-74
2022/04/16 13:02:40;;;;;;;10.48;2.20;;;26.80;80.60;;;;;;5041702;28;20061;-74
2022/04/16 13:05:14;;;;;;;7.80;2.05;;;27.60;81.00;;;;;;5038856;28;20038;-74
2022/04/16 13:07:41;;;;;;;9.75;2.08;;;28.00;79.70;;;;;;5022692;28;20500;-74
2022/04/16 13:10:09;;;;;;;7.18;2.33;;;28.20;79.40;;;;;;5037423;28;20151;-74
2022/04/16 13:12:35;;;;;;;10.20;2.00;;;27.70;80.00;;;;;;5038347;28;20048;-75
2022/04/16 13:15:02;;;;;;;8.63;2.05;;;27.40;81.00;;;;;;5021655;28;20114;-74